Time;durP1;ratioP1;P1;durP2;ratioP2;P2;SDS_P1;SDS_P2;PMS_P1;PMS_P2;Temp;Humidity;BMP_temperature;BMP_pressure;BME280_temperature;BME280_humidity;BME280_pressure;Samples;Min_cycle;Max_cycle;Signal;HPM_P1;HPM_P2
2021/12/01 00:01:37;;;;;;;1.10;1.10;;;;;;;4.70;84.84;99938.88;5069286;28;20772;-76
2021/12/01 00:04:02;;;;;;;1.20;1.20;;;;;;;4.69;84.62;99929.16;5079557;28;20418;-77
2021/12/01 00:06:28;;;;;;;1.60;1.50;;;;;;;4.71;84.65;99914.47;5083204;28;20406;-77
2021/12/01 00:08:53;;;;;;;2.70;1.80;;;;;;;4.74;83.91;99918.59;5093023;28;20413;-76
2021/12/01 00:11:18;;;;;;;1.40;1.05;;;;;;;4.73;84.18;99916.97;5083973;28;20477;-76
2021/12/01 00:13:43;;;;;;;1.37;1.10;;;;;;;4.79;83.67;99923.31;5081581;28;20420;-77
2021/12/01 00:16:09;;;;;;;0.97;0.97;;;;;;;4.83;82.99;99917.28;5085143;28;20872;-76
2021/12/01 00:18:34;;;;;;;1.30;1.00;;;;;;;4.87;82.71;99921.19;5079046;28;20390;-77
2021/12/01 00:21:00;;;;;;;1.63;1.20;;;;;;;4.87;83.12;99918.50;5077180;28;20414;-76
2021/12/01 00:23:26;;;;;;;3.83;1.30;;;;;;;4.88;82.85;99913.91;5080516;28;20502;-77
2021/12/01 00:25:52;;;;;;;2.85;1.23;;;;;;;4.89;83.25;99897.59;5083039;28;20408;-76
2021/12/01 00:28:18;;;;;;;2.75;1.20;;;;;;;4.85;83.09;99891.03;5089312;28;20400;-76
2021/12/01 00:30:43;;;;;;;1.00;1.00;;;;;;;4.89;82.65;99877.97;5069679;28;20481;-76
2021/12/01 00:33:11;;;;;;;0.80;0.80;;;;;;;4.92;82.59;99880.22;5056987;28;20469;-76
2021/12/01 00:35:37;;;;;;;0.90;0.90;;;;;;;4.93;82.19;99861.22;5075959;28;20407;-76
2021/12/01 00:38:03;;;;;;;1.00;0.85;;;;;;;4.98;81.78;99858.66;5081893;28;20752;-76
2021/12/01 00:40:28;;;;;;;0.98;0.90;;;;;;;5.00;82.20;99861.16;5053402;28;20492;-77
2021/12/01 00:42:54;;;;;;;1.30;1.20;;;;;;;4.96;82.46;99847.34;5058440;28;20418;-77
2021/12/01 00:45:22;;;;;;;1.30;1.10;;;;;;;4.96;81.82;99850.03;5059072;28;20405;-77
2021/12/01 00:47:52;;;;;;;1.73;1.05;;;;;;;4.99;81.65;99838.84;5055990;28;20409;-76
2021/12/01 00:50:33;;;;;;;2.08;1.50;;;;;;;4.97;81.77;99837.44;5058985;28;20415;-76
2021/12/01 00:53:02;;;;;;;2.17;1.25;;;;;;;4.98;82.00;99839.03;5064960;28;20433;-75
2021/12/01 00:55:28;;;;;;;3.10;1.87;;;;;;;4.95;81.80;99834.13;5049956;28;20463;-77
2021/12/01 00:57:55;;;;;;;1.42;1.33;;;;;;;4.95;81.99;99834.94;5055089;28;20413;-76
2021/12/01 01:00:22;;;;;;;2.90;1.70;;;;;;;4.92;81.70;99826.53;5053978;28;20403;-76
2021/12/01 01:02:48;;;;;;;2.33;2.10;;;;;;;4.93;81.73;99838.91;5051611;28;20417;-76
2021/12/01 01:05:13;;;;;;;3.00;1.98;;;;;;;4.93;81.73;99829.00;5051342;28;20412;-76
2021/12/01 01:07:39;;;;;;;4.53;3.17;;;;;;;4.93;81.47;99815.56;5063773;28;20396;-76
2021/12/01 01:18:20;;;;;;;2.15;1.95;;;;;;;4.89;82.11;99810.84;5050456;28;20400;-76
2021/12/01 01:20:45;;;;;;;3.90;2.50;;;;;;;4.89;81.79;99822.41;5056400;28;20898;-76
2021/12/01 01:23:10;;;;;;;4.07;3.00;;;;;;;4.94;81.51;99814.50;5057023;28;20413;-76
2021/12/01 01:25:36;;;;;;;7.90;4.47;;;;;;;4.96;81.75;99808.94;5065567;28;20482;-76
2021/12/01 01:28:01;;;;;;;7.90;3.38;;;;;;;4.95;81.33;99804.59;5065189;28;20534;-76
2021/12/01 01:30:27;;;;;;;3.00;1.70;;;;;;;4.95;81.94;99810.78;5054093;28;20893;-76
2021/12/01 01:32:52;;;;;;;2.20;1.40;;;;;;;4.99;81.32;99806.63;5052786;28;20401;-76
2021/12/01 01:35:18;;;;;;;6.00;2.53;;;;;;;4.99;81.34;99806.63;5053600;28;20459;-76
2021/12/01 01:37:44;;;;;;;1.80;1.63;;;;;;;4.94;81.91;99801.06;5061720;28;20460;-76
2021/12/01 01:40:10;;;;;;;1.35;1.10;;;;;;;4.97;81.87;99795.25;5064852;28;20921;-76
2021/12/01 01:42:35;;;;;;;3.05;1.80;;;;;;;5.01;81.10;99787.56;5058292;28;20417;-76
2021/12/01 01:45:01;;;;;;;1.00;1.00;;;;;;;5.05;81.33;99794.16;5051089;28;20892;-76
2021/12/01 01:47:26;;;;;;;2.50;2.10;;;;;;;5.07;81.39;99776.75;5050357;28;20827;-76
2021/12/01 01:49:57;;;;;;;2.50;1.20;;;;;;;5.06;81.70;99780.50;5055934;28;20410;-76
2021/12/01 01:52:22;;;;;;;2.40;1.73;;;;;;;5.05;81.78;99778.84;5052571;28;20423;-76
2021/12/01 01:54:48;;;;;;;1.53;1.43;;;;;;;5.04;81.96;99779.91;5057820;28;20417;-77
2021/12/01 01:57:13;;;;;;;1.40;1.30;;;;;;;5.10;81.25;99768.25;5068106;28;20467;-76
2021/12/01 01:59:38;;;;;;;2.43;1.73;;;;;;;5.10;81.29;99767.44;5065860;28;20399;-76
2021/12/01 02:02:04;;;;;;;1.93;1.70;;;;;;;5.11;81.59;99759.16;5055117;28;20453;-77
2021/12/01 02:04:33;;;;;;;1.30;1.20;;;;;;;5.14;81.12;99773.97;5051673;28;20905;-76
2021/12/01 02:06:59;;;;;;;1.90;1.80;;;;;;;5.19;80.78;99779.50;5054063;28;20415;-76
2021/12/01 02:09:24;;;;;;;1.25;1.15;;;;;;;5.18;80.97;99754.50;5055419;28;20416;-76
2021/12/01 02:11:56;;;;;;;2.30;1.13;;;;;;;5.21;81.25;99772.03;5057720;28;20416;-76
2021/12/01 02:14:22;;;;;;;1.38;1.27;;;;;;;5.23;80.83;99756.53;5055055;28;20443;-76
2021/12/01 02:16:48;;;;;;;1.35;1.23;;;;;;;5.23;80.95;99746.63;5058670;28;20952;-76
2021/12/01 02:19:13;;;;;;;2.90;0.90;;;;;;;5.28;80.71;99737.03;5053355;28;20415;-76
2021/12/01 02:21:39;;;;;;;1.73;0.80;;;;;;;5.26;81.10;99731.91;5053570;28;20423;-76
2021/12/01 02:24:07;;;;;;;1.20;0.77;;;;;;;5.30;80.98;99726.88;5056416;28;20443;-76
2021/12/01 02:26:38;;;;;;;0.90;0.90;;;;;;;5.32;80.35;99717.53;5064823;28;20408;-76
2021/12/01 02:29:07;;;;;;;1.90;1.40;;;;;;;5.30;80.85;99708.91;5066242;28;20397;-77
2021/12/01 02:31:35;;;;;;;3.30;1.13;;;;;;;5.30;80.74;99708.91;5061421;28;20384;-76
2021/12/01 02:34:05;;;;;;;0.90;0.90;;;;;;;5.34;80.28;99704.69;5072159;28;20429;-76
2021/12/01 02:36:31;;;;;;;1.50;1.00;;;;;;;5.33;80.54;99699.56;5053950;28;20817;-76
2021/12/01 02:38:56;;;;;;;1.80;0.85;;;;;;;5.33;80.57;99686.97;5064757;28;20427;-76
2021/12/01 02:41:30;;;;;;;1.10;1.00;;;;;;;5.37;80.13;99677.38;5074259;28;20530;-76
2021/12/01 02:43:57;;;;;;;1.60;1.20;;;;;;;5.35;80.86;99667.91;5086301;28;20433;-76
2021/12/01 02:46:24;;;;;;;1.95;1.20;;;;;;;5.36;80.75;99672.25;5089883;28;20386;-76
2021/12/01 02:48:49;;;;;;;1.88;0.73;;;;;;;5.37;80.40;99661.25;5085432;28;20387;-76
2021/12/01 02:51:16;;;;;;;1.55;1.00;;;;;;;5.38;80.54;99635.19;5053471;28;20419;-76
2021/12/01 02:53:41;;;;;;;1.90;1.52;;;;;;;5.39;80.61;99634.97;5101089;28;20444;-76
2021/12/01 02:56:08;;;;;;;2.22;1.30;;;;;;;5.37;80.44;99629.00;5088663;28;20785;-77
2021/12/01 02:58:38;;;;;;;0.98;0.90;;;;;;;5.42;80.80;99625.63;5077077;28;20389;-76
2021/12/01 03:01:06;;;;;;;1.30;0.90;;;;;;;5.44;80.18;99620.84;5082147;28;20542;-77
2021/12/01 03:03:31;;;;;;;0.90;0.90;;;;;;;5.44;80.50;99632.41;5067454;28;20398;-76
2021/12/01 03:05:58;;;;;;;2.03;1.30;;;;;;;5.43;80.62;99627.28;5073840;28;20510;-76
2021/12/01 03:08:24;;;;;;;2.22;1.65;;;;;;;5.42;80.55;99615.72;5080016;28;20738;-77
2021/12/01 03:10:51;;;;;;;2.90;0.82;;;;;;;5.45;80.55;99622.47;5077602;28;20392;-77
2021/12/01 03:13:19;;;;;;;1.23;1.10;;;;;;;5.45;80.70;99620.63;5083877;28;20443;-77
2021/12/01 03:15:44;;;;;;;2.40;1.23;;;;;;;5.49;80.33;99607.53;5075008;28;20384;-76
2021/12/01 03:18:11;;;;;;;1.63;1.17;;;;;;;5.47;80.88;99615.00;5083891;28;20461;-76
2021/12/01 03:20:37;;;;;;;3.55;1.80;;;;;;;5.51;80.61;99600.88;5080844;28;20453;-76
2021/12/01 03:23:03;;;;;;;2.53;1.20;;;;;;;5.54;80.23;99611.16;5078192;28;20412;-76
2021/12/01 03:25:29;;;;;;;3.20;0.77;;;;;;;5.55;80.39;99604.75;5073331;28;20399;-76
2021/12/01 03:27:54;;;;;;;1.35;1.10;;;;;;;5.57;80.29;99599.13;5077500;28;20507;-76
2021/12/01 03:30:20;;;;;;;1.67;1.00;;;;;;;5.54;80.65;99605.78;5079119;28;20483;-76
2021/12/01 03:32:46;;;;;;;1.20;1.17;;;;;;;5.55;80.44;99603.91;5070701;28;20842;-76
2021/12/01 03:35:13;;;;;;;2.90;1.60;;;;;;;5.53;81.36;99595.28;5067972;28;20406;-76
2021/12/01 03:37:41;;;;;;;1.83;1.40;;;;;;;5.56;80.80;99598.31;5079869;28;20487;-76
2021/12/01 03:40:07;;;;;;;0.90;0.90;;;;;;;5.59;80.49;99588.97;5079499;28;20466;-75
2021/12/01 03:42:33;;;;;;;1.48;1.00;;;;;;;5.58;80.89;99590.84;5079109;28;20472;-76
2021/12/01 03:44:58;;;;;;;1.80;1.13;;;;;;;5.60;80.36;99582.53;5073586;28;20399;-76
2021/12/01 03:47:25;;;;;;;1.58;1.17;;;;;;;5.62;80.83;99580.44;5085823;28;20906;-76
2021/12/01 03:49:51;;;;;;;0.80;0.80;;;;;;;5.66;80.61;99555.53;5069721;28;20452;-76
2021/12/01 03:52:17;;;;;;;2.40;0.80;;;;;;;5.70;80.04;99561.25;5101325;28;20523;-76
2021/12/01 03:54:47;;;;;;;7.20;2.30;;;;;;;5.74;79.92;99554.34;5081990;28;20403;-76
2021/12/01 03:57:13;;;;;;;8.43;3.38;;;;;;;5.70;80.60;99535.19;5069673;28;20519;-78
2021/12/01 03:59:39;;;;;;;4.63;2.28;;;;;;;5.71;80.09;99528.78;5065826;28;20392;-76
2021/12/01 04:02:04;;;;;;;0.97;0.60;;;;;;;5.79;80.22;99521.41;5084612;28;20907;-76
2021/12/01 04:04:30;;;;;;;1.30;0.80;;;;;;;5.87;79.81;99521.06;5059245;28;20387;-76
2021/12/01 04:06:55;;;;;;;2.33;0.90;;;;;;;5.84;80.06;99508.88;5073971;28;20466;-76
2021/12/01 04:09:21;;;;;;;2.73;1.07;;;;;;;5.82;80.55;99504.78;5078352;28;20395;-76
2021/12/01 04:11:46;;;;;;;0.80;0.80;;;;;;;5.83;80.41;99504.53;5070346;28;20407;-76
2021/12/01 04:14:12;;;;;;;2.10;0.80;;;;;;;5.87;80.31;99489.59;5070921;28;20476;-76
2021/12/01 04:16:37;;;;;;;0.60;0.60;;;;;;;5.90;79.65;99467.63;5068935;28;20488;-76
2021/12/01 04:19:03;;;;;;;0.47;0.43;;;;;;;5.92;79.51;99470.06;5079446;28;20473;-76
2021/12/01 04:21:28;;;;;;;1.80;0.80;;;;;;;5.93;80.10;99463.66;5099295;28;20394;-77
2021/12/01 04:23:55;;;;;;;0.55;0.55;;;;;;;5.94;79.37;99457.19;5053436;28;20792;-76
2021/12/01 04:26:23;;;;;;;1.58;0.45;;;;;;;5.95;79.39;99454.28;5085124;28;20423;-78
2021/12/01 04:28:50;;;;;;;1.38;0.70;;;;;;;5.96;79.30;99445.16;5086414;28;20386;-76
2021/12/01 04:31:15;;;;;;;0.57;0.40;;;;;;;5.98;79.29;99443.06;5087214;28;20383;-77
2021/12/01 04:33:41;;;;;;;0.53;0.53;;;;;;;6.00;79.12;99442.78;5083308;28;20455;-76
2021/12/01 04:36:07;;;;;;;0.93;0.40;;;;;;;6.00;79.64;99443.63;5079494;28;20724;-76
2021/12/01 04:38:33;;;;;;;0.50;0.50;;;;;;;6.00;79.00;99445.47;5076933;28;20383;-76
2021/12/01 04:40:58;;;;;;;0.63;0.33;;;;;;;6.02;79.38;99443.38;5091635;28;20414;-76
2021/12/01 04:43:23;;;;;;;2.42;0.60;;;;;;;6.04;79.28;99443.94;5092294;28;20459;-76
2021/12/01 04:45:54;;;;;;;0.87;0.50;;;;;;;6.06;78.63;99445.34;5083968;28;20396;-76
2021/12/01 04:48:19;;;;;;;2.00;0.60;;;;;;;6.08;78.89;99426.28;5076423;28;20388;-76
2021/12/01 04:50:45;;;;;;;0.80;0.80;;;;;;;6.07;79.07;99432.72;5077106;28;20391;-76
2021/12/01 04:53:10;;;;;;;1.20;0.70;;;;;;;6.06;78.76;99420.34;5063078;28;20495;-76
2021/12/01 04:55:35;;;;;;;0.53;0.53;;;;;;;6.09;78.83;99419.88;5071887;28;20414;-76
2021/12/01 04:58:00;;;;;;;1.20;0.50;;;;;;;6.12;78.12;99425.56;5089308;28;20409;-76
2021/12/01 05:00:27;;;;;;;0.60;0.60;;;;;;;6.12;79.01;99422.06;5070079;28;22454;-76
2021/12/01 05:02:53;;;;;;;1.00;0.30;;;;;;;6.13;78.95;99413.75;5081247;28;20445;-76
2021/12/01 05:05:18;;;;;;;0.60;0.40;;;;;;;6.12;78.56;99422.06;5080380;28;20902;-77
2021/12/01 05:07:44;;;;;;;2.23;0.80;;;;;;;6.09;78.96;99430.63;5075588;28;20391;-76
2021/12/01 05:10:10;;;;;;;1.17;0.50;;;;;;;6.09;78.59;99417.97;5072887;28;20395;-76
2021/12/01 05:12:36;;;;;;;1.70;0.53;;;;;;;6.07;78.96;99408.50;5072191;28;20411;-77
2021/12/01 05:15:02;;;;;;;0.50;0.50;;;;;;;6.10;78.89;99402.66;5073381;28;20720;-76
2021/12/01 05:17:28;;;;;;;0.80;0.40;;;;;;;6.13;78.97;99400.28;5079856;28;20405;-76
2021/12/01 05:19:53;;;;;;;1.50;0.60;;;;;;;6.17;78.67;99389.88;5089790;28;20391;-76
2021/12/01 05:22:18;;;;;;;2.25;0.30;;;;;;;6.16;78.55;99374.78;5081782;28;20947;-77
2021/12/01 05:24:44;;;;;;;0.40;0.40;;;;;;;6.17;78.90;99363.78;5074127;28;20783;-76
2021/12/01 05:27:09;;;;;;;1.70;0.50;;;;;;;6.18;78.49;99354.66;5076128;28;20751;-76
2021/12/01 05:29:34;;;;;;;0.30;0.30;;;;;;;6.21;78.05;99343.41;5080462;28;20742;-76
2021/12/01 05:32:02;;;;;;;0.30;0.30;;;;;;;6.21;78.51;99348.78;5087946;28;20395;-76
2021/12/01 05:34:27;;;;;;;2.15;0.60;;;;;;;6.24;77.94;99337.53;5084206;28;20955;-76
2021/12/01 05:36:59;;;;;;;1.40;0.40;;;;;;;6.25;78.39;99333.81;5088215;28;20525;-76
2021/12/01 05:39:25;;;;;;;1.00;0.50;;;;;;;6.29;77.51;99331.41;5077194;28;20421;-77
2021/12/01 05:41:52;;;;;;;0.30;0.30;;;;;;;6.32;77.69;99316.69;5090438;28;20402;-78
2021/12/01 05:44:17;;;;;;;0.57;0.40;;;;;;;6.29;77.86;99314.47;5054906;28;20388;-77
2021/12/01 05:46:42;;;;;;;0.50;0.50;;;;;;;6.26;78.57;99308.50;5082884;28;20406;-77
2021/12/01 05:49:08;;;;;;;0.80;0.40;;;;;;;6.31;78.76;99318.56;5074269;28;20474;-76
2021/12/01 05:51:33;;;;;;;1.27;0.53;;;;;;;6.31;78.16;99305.09;5085201;28;20401;-77
2021/12/01 05:53:59;;;;;;;0.43;0.37;;;;;;;6.36;78.25;99298.97;5088530;28;20402;-77
2021/12/01 05:56:24;;;;;;;1.97;0.47;;;;;;;6.36;78.35;99301.66;5079515;28;20414;-77
2021/12/01 05:58:49;;;;;;;1.10;0.70;;;;;;;6.37;78.03;99295.22;5084712;28;20402;-76
2021/12/01 06:01:14;;;;;;;0.60;0.40;;;;;;;6.37;78.30;99279.06;5078520;28;20848;-76
2021/12/01 06:03:40;;;;;;;0.22;0.22;;;;;;;6.42;77.73;99285.34;5089083;28;20418;-77
2021/12/01 06:06:06;;;;;;;1.57;0.30;;;;;;;6.47;77.64;99290.81;5091207;28;20390;-77
2021/12/01 06:08:32;;;;;;;0.22;0.22;;;;;;;6.48;78.04;99292.44;5085236;28;20964;-77
2021/12/01 06:10:58;;;;;;;0.80;0.50;;;;;;;6.52;77.52;99268.56;5085674;28;20506;-77
2021/12/01 06:13:24;;;;;;;0.50;0.50;;;;;;;6.53;78.03;99279.06;5106432;28;20459;-76
2021/12/01 06:15:50;;;;;;;0.30;0.30;;;;;;;6.52;78.33;99276.63;5092795;28;20398;-77
2021/12/01 06:18:16;;;;;;;0.32;0.20;;;;;;;6.55;77.88;99279.63;5087467;28;20700;-77
2021/12/01 06:20:41;;;;;;;0.57;0.40;;;;;;;6.57;78.09;99274.81;5074148;28;20422;-76
2021/12/01 06:23:07;;;;;;;1.20;0.30;;;;;;;6.59;77.61;99259.22;5096751;28;20419;-76
2021/12/01 06:25:32;;;;;;;0.82;0.70;;;;;;;6.61;77.66;99256.28;5085272;28;20394;-76
2021/12/01 06:27:58;;;;;;;14.20;0.60;;;;;;;6.64;77.10;99255.78;5077439;28;20979;-76
2021/12/01 06:30:25;;;;;;;0.40;0.40;;;;;;;6.65;76.97;99254.75;5075920;28;20394;-77
2021/12/01 06:32:51;;;;;;;0.80;0.30;;;;;;;6.62;77.85;99242.56;5104034;28;20402;-77
2021/12/01 06:35:17;;;;;;;0.45;0.22;;;;;;;6.64;77.52;99248.53;5090410;28;20397;-76
2021/12/01 06:37:43;;;;;;;1.00;0.50;;;;;;;6.65;77.26;99235.91;5089127;28;20466;-76
2021/12/01 06:40:08;;;;;;;0.80;0.30;;;;;;;6.68;76.96;99248.84;5072759;28;20456;-77
2021/12/01 06:42:35;;;;;;;0.30;0.30;;;;;;;6.68;77.49;99238.09;5071732;28;20804;-76
2021/12/01 06:45:03;;;;;;;0.55;0.25;;;;;;;6.70;77.83;99234.06;5089255;28;20524;-77
2021/12/01 06:47:28;;;;;;;1.20;0.50;;;;;;;6.76;77.12;99224.19;5065705;28;20402;-77
2021/12/01 06:49:53;;;;;;;0.50;0.50;;;;;;;6.73;77.71;99217.44;5087365;28;20417;-77
2021/12/01 06:52:19;;;;;;;0.98;0.77;;;;;;;6.72;77.89;99207.72;5073216;28;20900;-77
2021/12/01 06:54:44;;;;;;;1.05;0.50;;;;;;;6.74;78.15;99202.09;5085183;28;20400;-77
2021/12/01 06:57:09;;;;;;;0.10;0.10;;;;;;;6.73;78.77;99201.28;5080092;28;20396;-76
2021/12/01 06:59:35;;;;;;;0.83;0.20;;;;;;;6.70;78.94;99191.00;5086676;28;20415;-77
2021/12/01 07:02:00;;;;;;;1.50;0.40;;;;;;;6.67;79.57;99179.91;5065787;28;20398;-77
2021/12/01 07:04:25;;;;;;;0.30;0.30;;;;;;;6.65;79.34;99177.47;5080778;28;20391;-78
2021/12/01 07:06:50;;;;;;;1.73;0.30;;;;;;;6.66;79.63;99165.63;5072843;28;20391;-78
2021/12/01 07:09:20;;;;;;;0.90;0.40;;;;;;;6.66;79.68;99159.44;5086976;28;20423;-78
2021/12/01 07:11:46;;;;;;;0.75;0.47;;;;;;;6.67;78.80;99147.63;5075597;28;20780;-78
2021/12/01 07:14:12;;;;;;;0.60;0.40;;;;;;;6.73;78.30;99154.69;5090335;28;20451;-76
2021/12/01 07:16:37;;;;;;;0.30;0.30;;;;;;;6.76;78.26;99136.16;5087844;28;20394;-77
2021/12/01 07:19:03;;;;;;;0.30;0.30;;;;;;;6.79;77.99;99132.94;5079308;28;20831;-76
2021/12/01 07:21:28;;;;;;;0.35;0.30;;;;;;;6.83;77.43;99132.44;5080766;28;20413;-76
2021/12/01 07:23:53;;;;;;;0.30;0.30;;;;;;;6.89;76.43;99116.09;5088748;28;20418;-77
2021/12/01 07:26:19;;;;;;;0.20;0.20;;;;;;;6.92;76.49;99118.25;5090227;28;20396;-77
2021/12/01 07:28:45;;;;;;;0.75;0.47;;;;;;;6.92;76.69;99107.50;5078953;28;20400;-77
2021/12/01 07:31:10;;;;;;;1.63;0.40;;;;;;;6.94;75.84;99113.47;5085663;28;20402;-77
2021/12/01 07:33:35;;;;;;;0.30;0.30;;;;;;;6.96;76.70;99100.53;5087779;28;21141;-77
2021/12/01 07:36:01;;;;;;;1.30;0.37;;;;;;;6.99;75.67;99105.41;5065717;28;20408;-77
2021/12/01 07:38:26;;;;;;;2.70;0.30;;;;;;;7.01;76.36;99095.22;5059985;28;20408;-77
2021/12/01 07:40:52;;;;;;;1.37;0.30;;;;;;;7.09;75.84;99088.53;5066943;28;20423;-77
2021/12/01 07:43:17;;;;;;;0.80;0.30;;;;;;;7.12;75.87;99083.44;5088048;28;20449;-77
2021/12/01 07:45:44;;;;;;;0.37;0.37;;;;;;;7.15;75.37;99091.03;5093871;28;20388;-77
2021/12/01 07:48:12;;;;;;;0.30;0.20;;;;;;;7.17;75.82;99064.66;5070335;28;20402;-78
2021/12/01 07:50:37;;;;;;;0.40;0.27;;;;;;;7.29;74.58;99094.13;5075772;28;20415;-77
2021/12/01 07:53:03;;;;;;;0.30;0.20;;;;;;;7.34;74.85;99078.00;5087576;28;20733;-77
2021/12/01 07:55:28;;;;;;;0.30;0.30;;;;;;;7.39;75.12;99067.25;5085697;28;20878;-77
2021/12/01 07:57:53;;;;;;;1.20;0.10;;;;;;;7.45;75.38;99073.47;5070559;28;20475;-77
2021/12/01 08:00:19;;;;;;;1.50;0.33;;;;;;;7.55;75.03;99068.97;5081995;28;20903;-77
2021/12/01 08:02:45;;;;;;;0.40;0.40;;;;;;;7.56;74.66;99065.22;5073389;28;20452;-77
2021/12/01 08:05:11;;;;;;;1.00;0.70;;;;;;;7.56;75.27;99065.22;5076506;28;20406;-77
2021/12/01 08:07:38;;;;;;;1.60;0.60;;;;;;;7.57;75.48;99064.16;5079922;28;20495;-77
2021/12/01 08:10:05;;;;;;;0.63;0.63;;;;;;;7.56;76.23;99050.94;5080961;28;20501;-77
2021/12/01 08:12:33;;;;;;;0.30;0.30;;;;;;;7.54;75.72;99045.78;5075406;28;20412;-77
2021/12/01 08:14:59;;;;;;;0.30;0.30;;;;;;;7.51;76.01;99040.13;5078234;28;20867;-77
2021/12/01 08:17:24;;;;;;;0.23;0.23;;;;;;;7.50;75.97;99031.22;5094741;28;20473;-77
2021/12/01 08:19:49;;;;;;;0.40;0.40;;;;;;;7.58;75.42;99029.91;5089952;28;20553;-77
2021/12/01 08:22:14;;;;;;;0.63;0.63;;;;;;;7.58;76.46;99028.03;5079978;28;20410;-78
2021/12/01 08:24:40;;;;;;;1.40;0.50;;;;;;;7.55;76.49;99015.06;5078320;28;20491;-77
2021/12/01 08:27:05;;;;;;;0.30;0.30;;;;;;;7.55;77.22;99016.94;5087006;28;20399;-77
2021/12/01 08:29:31;;;;;;;0.40;0.30;;;;;;;7.60;76.60;99012.41;5074394;28;20847;-77
2021/12/01 08:31:56;;;;;;;0.67;0.67;;;;;;;7.59;76.43;99009.97;5088527;28;20866;-77
2021/12/01 08:34:21;;;;;;;0.40;0.20;;;;;;;7.62;75.85;99001.34;5077386;28;20563;-77
2021/12/01 08:36:47;;;;;;;0.10;0.10;;;;;;;7.66;75.35;98994.38;5089912;28;20724;-77
2021/12/01 08:39:13;;;;;;;0.20;0.20;;;;;;;7.63;75.31;99003.81;5086409;28;20402;-77
2021/12/01 08:41:39;;;;;;;0.10;0.10;;;;;;;7.67;75.19;98999.50;5080711;28;20491;-77
2021/12/01 08:44:04;;;;;;;0.30;0.30;;;;;;;7.68;75.06;98993.03;5082054;28;20411;-77
2021/12/01 08:46:30;;;;;;;0.80;0.20;;;;;;;7.75;74.38;98993.63;5077514;28;20477;-77
2021/12/01 08:48:56;;;;;;;0.15;0.10;;;;;;;7.76;74.38;98978.25;5081614;28;20800;-77
2021/12/01 08:51:22;;;;;;;0.20;0.10;;;;;;;7.74;74.99;98972.28;5083187;28;20881;-77
2021/12/01 08:53:47;;;;;;;0.20;0.20;;;;;;;7.74;74.65;98972.28;5083589;28;20459;-77
2021/12/01 08:56:14;;;;;;;0.50;0.30;;;;;;;7.78;74.23;98959.91;5074731;28;20396;-78
2021/12/01 08:58:40;;;;;;;2.03;0.30;;;;;;;7.80;74.09;98960.47;5074959;28;20457;-78
2021/12/01 09:01:05;;;;;;;0.60;0.20;;;;;;;7.86;73.59;98961.31;5073986;28;20766;-77
2021/12/01 09:03:30;;;;;;;0.10;0.10;;;;;;;7.84;73.50;98948.06;5074957;28;20786;-78
2021/12/01 09:05:56;;;;;;;0.32;0.20;;;;;;;7.89;73.98;98947.28;5088804;28;20459;-77
2021/12/01 09:08:23;;;;;;;0.80;0.30;;;;;;;7.88;73.73;98949.16;5086923;28;20450;-77
2021/12/01 09:10:52;;;;;;;1.23;0.10;;;;;;;7.90;73.73;98946.22;5083531;28;20970;-77
2021/12/01 09:13:18;;;;;;;2.80;0.30;;;;;;;7.99;73.27;98940.06;5067024;28;20401;-77
2021/12/01 09:15:44;;;;;;;0.70;0.22;;;;;;;8.02;72.44;98928.72;5075750;28;20439;-76
2021/12/01 09:18:09;;;;;;;0.17;0.17;;;;;;;8.00;73.24;98935.47;5077800;28;20394;-77
2021/12/01 09:20:35;;;;;;;0.40;0.23;;;;;;;8.09;72.73;98933.88;5090482;28;20737;-77
2021/12/01 09:23:02;;;;;;;0.60;0.10;;;;;;;8.09;72.44;98925.78;5084968;28;20447;-78
2021/12/01 09:25:28;;;;;;;0.50;0.10;;;;;;;8.06;72.73;98910.94;5090894;28;20410;-77
2021/12/01 09:27:54;;;;;;;0.70;0.20;;;;;;;8.05;72.67;98908.50;5093231;28;20414;-77
2021/12/01 09:30:19;;;;;;;0.10;0.10;;;;;;;8.08;72.77;98908.78;5093136;28;20435;-77
2021/12/01 09:32:45;;;;;;;0.57;0.57;;;;;;;8.09;72.86;98912.28;5091709;28;20831;-77
2021/12/01 09:35:11;;;;;;;1.92;0.40;;;;;;;8.08;72.42;98910.66;5102603;28;20400;-77
2021/12/01 09:37:37;;;;;;;0.55;0.22;;;;;;;8.10;72.36;98903.91;5090082;28;20462;-77
2021/12/01 09:40:05;;;;;;;0.90;0.50;;;;;;;8.15;72.83;98898.53;5092457;28;20406;-77
2021/12/01 09:42:31;;;;;;;0.20;0.20;;;;;;;8.16;72.41;98886.69;5080586;28;20877;-77
2021/12/01 09:44:56;;;;;;;0.67;0.37;;;;;;;8.19;73.38;98890.72;5087204;28;20408;-77
2021/12/01 09:47:22;;;;;;;0.87;0.70;;;;;;;8.20;72.76;98886.97;5084969;28;20441;-76
2021/12/01 09:49:50;;;;;;;1.10;0.30;;;;;;;8.22;73.08;98890.19;5091465;28;20409;-77
2021/12/01 09:52:16;;;;;;;2.80;0.57;;;;;;;8.19;73.19;98880.75;5084981;28;20406;-77
2021/12/01 09:54:41;;;;;;;0.30;0.20;;;;;;;8.22;72.98;98882.09;5087864;28;20459;-77
2021/12/01 09:57:07;;;;;;;0.80;0.50;;;;;;;8.25;74.32;98879.69;5065909;28;20839;-77
2021/12/01 09:59:33;;;;;;;1.17;0.55;;;;;;;8.26;74.85;98861.59;5079162;28;20403;-77
2021/12/01 10:01:59;;;;;;;0.53;0.30;;;;;;;8.29;75.11;98859.22;5072672;28;20426;-77
2021/12/01 10:04:25;;;;;;;0.73;0.13;;;;;;;8.37;75.07;98857.03;5086687;28;20462;-77
2021/12/01 10:06:50;;;;;;;1.10;1.00;;;;;;;8.45;75.26;98862.72;5088642;28;20393;-77
2021/12/01 10:09:18;;;;;;;0.30;0.30;;;;;;;8.39;76.74;98853.00;5087590;28;20471;-77
2021/12/01 10:11:43;;;;;;;0.90;0.10;;;;;;;8.37;76.63;98841.66;5087548;28;20402;-76
2021/12/01 10:14:16;;;;;;;0.30;0.30;;;;;;;8.25;78.53;98835.69;5061050;28;20418;-77
2021/12/01 10:16:43;;;;;;;0.60;0.40;;;;;;;8.23;78.43;98827.06;5088864;28;20492;-77
2021/12/01 10:19:10;;;;;;;0.20;0.20;;;;;;;8.15;79.08;98822.19;5074991;28;20857;-76
2021/12/01 10:21:39;;;;;;;0.35;0.22;;;;;;;8.14;78.79;98818.66;5085576;28;20459;-77
2021/12/01 10:24:15;;;;;;;1.40;0.20;;;;;;;8.10;79.29;98796.00;5078134;28;20474;-77
2021/12/01 10:26:49;;;;;;;6.07;0.30;;;;;;;8.08;79.63;98792.75;5075099;28;20488;-77
2021/12/01 10:29:20;;;;;;;0.10;0.10;;;;;;;8.04;80.30;98777.38;5085480;28;20496;-77
2021/12/01 10:32:13;;;;;;;0.20;0.20;;;;;;;8.03;80.50;98776.59;5091705;28;20417;-77
2021/12/01 10:34:43;;;;;;;0.60;0.20;;;;;;;8.09;80.21;98789.00;5091988;28;20761;-77
2021/12/01 10:37:33;;;;;;;1.70;0.50;;;;;;;8.11;79.75;98767.13;5083882;28;20416;-77
2021/12/01 10:40:08;;;;;;;1.55;0.30;;;;;;;8.16;80.32;98764.44;5074177;28;20421;-77
2021/12/01 10:42:49;;;;;;;1.00;0.10;;;;;;;8.23;80.57;98756.91;5075961;28;20398;-77
2021/12/01 10:45:17;;;;;;;0.70;0.20;;;;;;;8.37;80.14;98765.25;5082169;28;20449;-77
2021/12/01 10:47:44;;;;;;;1.83;0.43;;;;;;;8.37;80.53;98755.28;5084781;28;20393;-77
2021/12/01 10:50:15;;;;;;;2.47;0.63;;;;;;;8.35;80.05;98760.16;5097312;28;20893;-77
2021/12/01 10:52:51;;;;;;;0.40;0.40;;;;;;;8.33;80.76;98746.91;5084393;28;20735;-77
2021/12/01 10:55:19;;;;;;;0.20;0.20;;;;;;;8.34;80.95;98756.63;5087205;28;20391;-77
2021/12/01 10:57:48;;;;;;;0.60;0.20;;;;;;;8.29;81.01;98745.03;5084018;28;20478;-77
2021/12/01 11:00:24;;;;;;;0.35;0.20;;;;;;;8.27;81.67;98731.78;5071362;28;20386;-77
2021/12/01 11:02:50;;;;;;;0.40;0.20;;;;;;;8.23;82.39;98729.91;5082262;28;20411;-77
2021/12/01 11:05:36;;;;;;;0.10;0.10;;;;;;;8.15;82.91;98725.03;5081844;28;20402;-77
2021/12/01 11:08:14;;;;;;;0.80;0.23;;;;;;;8.18;83.16;98711.81;5086107;28;20793;-77
2021/12/01 11:10:40;;;;;;;1.95;0.40;;;;;;;8.16;83.54;98710.47;5087560;28;20413;-77
2021/12/01 11:13:07;;;;;;;0.28;0.28;;;;;;;8.11;83.87;98705.06;5090364;28;20817;-77
2021/12/01 11:15:34;;;;;;;1.30;0.50;;;;;;;8.13;83.06;98703.75;5091082;28;20393;-77
2021/12/01 11:18:01;;;;;;;0.52;0.30;;;;;;;8.09;84.15;98699.16;5090512;28;20430;-77
2021/12/01 11:20:39;;;;;;;1.50;0.47;;;;;;;8.18;83.49;98694.81;5089604;28;20413;-77
2021/12/01 11:23:07;;;;;;;1.20;0.80;;;;;;;8.25;83.61;98684.56;5087333;28;20421;-77
2021/12/01 11:25:35;;;;;;;1.95;0.57;;;;;;;8.23;84.25;98695.63;5069848;28;20425;-77
2021/12/01 11:28:01;;;;;;;0.75;0.40;;;;;;;8.23;84.00;98684.81;5082595;28;20406;-77
2021/12/01 11:30:27;;;;;;;2.10;0.50;;;;;;;8.16;84.93;98680.81;5091560;28;20748;-77
2021/12/01 11:32:52;;;;;;;1.33;0.60;;;;;;;8.30;83.93;98685.38;5082841;28;20476;-77
2021/12/01 11:35:18;;;;;;;1.37;0.40;;;;;;;8.33;84.62;98667.84;5091247;28;20473;-77
2021/12/01 11:37:43;;;;;;;1.30;0.30;;;;;;;8.31;84.13;98662.72;5091861;28;20416;-77
2021/12/01 11:40:09;;;;;;;0.50;0.40;;;;;;;8.33;84.96;98659.75;5073228;28;20414;-77
2021/12/01 11:42:35;;;;;;;0.80;0.52;;;;;;;8.30;84.67;98655.69;5093206;28;20405;-77
2021/12/01 11:45:02;;;;;;;3.33;0.40;;;;;;;8.28;85.36;98657.06;5092844;28;20390;-77
2021/12/01 11:47:27;;;;;;;0.85;0.45;;;;;;;8.27;84.97;98637.31;5079909;28;20400;-77